sensor_id;sensor_type;location;lat;lon;timestamp;pressure;altitude;pressure_sealevel;temperature;humidity
7532;BME280;3807;49.030;8.714;2023-02-14T00:01:58;101212.34;;;5.25;71.91
7532;BME280;3807;49.030;8.714;2023-02-14T00:04:23;101207.41;;;5.30;71.61
7532;BME280;3807;49.030;8.714;2023-02-14T00:06:48;101206.44;;;5.23;71.96
7532;BME280;3807;49.030;8.714;2023-02-14T00:09:16;101202.19;;;5.22;71.86
7532;BME280;3807;49.030;8.714;2023-02-14T00:11:42;101207.22;;;5.21;71.96
7532;BME280;3807;49.030;8.714;2023-02-14T00:14:08;101210.41;;;5.12;72.10
7532;BME280;3807;49.030;8.714;2023-02-14T00:16:52;101210.37;;;5.11;71.83
7532;BME280;3807;49.030;8.714;2023-02-14T00:19:18;101213.00;;;5.15;71.72
7532;BME280;3807;49.030;8.714;2023-02-14T00:21:45;101207.88;;;5.11;72.05
7532;BME280;3807;49.030;8.714;2023-02-14T00:24:12;101204.41;;;5.06;72.32
7532;BME280;3807;49.030;8.714;2023-02-14T00:26:38;101209.41;;;5.03;72.41
7532;BME280;3807;49.030;8.714;2023-02-14T00:29:09;101208.53;;;5.02;72.22
7532;BME280;3807;49.030;8.714;2023-02-14T00:31:34;101198.41;;;5.00;72.07
7532;BME280;3807;49.030;8.714;2023-02-14T00:34:01;101199.22;;;4.99;72.21
7532;BME280;3807;49.030;8.714;2023-02-14T00:36:27;101202.63;;;5.01;71.76
7532;BME280;3807;49.030;8.714;2023-02-14T00:38:52;101201.81;;;5.03;72.00
7532;BME280;3807;49.030;8.714;2023-02-14T00:41:18;101203.53;;;5.05;71.45
7532;BME280;3807;49.030;8.714;2023-02-14T00:43:45;101197.50;;;4.98;71.91
7532;BME280;3807;49.030;8.714;2023-02-14T00:46:11;101201.69;;;4.96;72.06
7532;BME280;3807;49.030;8.714;2023-02-14T00:48:36;101203.25;;;4.90;72.14
7532;BME280;3807;49.030;8.714;2023-02-14T00:51:02;101199.09;;;4.93;71.94
7532;BME280;3807;49.030;8.714;2023-02-14T00:53:27;101200.69;;;4.88;72.33
7532;BME280;3807;49.030;8.714;2023-02-14T00:55:52;101205.69;;;4.87;71.90
7532;BME280;3807;49.030;8.714;2023-02-14T00:58:18;101204.03;;;4.87;72.04
7532;BME280;3807;49.030;8.714;2023-02-14T01:00:43;101209.87;;;4.85;72.05
7532;BME280;3807;49.030;8.714;2023-02-14T01:03:08;101207.28;;;4.82;72.06
7532;BME280;3807;49.030;8.714;2023-02-14T01:05:33;101209.81;;;4.82;72.04
7532;BME280;3807;49.030;8.714;2023-02-14T01:07:59;101207.22;;;4.78;71.94
7532;BME280;3807;49.030;8.714;2023-02-14T01:10:24;101206.25;;;4.72;71.92
7532;BME280;3807;49.030;8.714;2023-02-14T01:12:49;101204.66;;;4.77;71.75
7532;BME280;3807;49.030;8.714;2023-02-14T01:15:15;101204.62;;;4.75;71.81
7532;BME280;3807;49.030;8.714;2023-02-14T01:17:40;101200.41;;;4.74;71.93
7532;BME280;3807;49.030;8.714;2023-02-14T01:20:06;101210.53;;;4.74;72.04
7532;BME280;3807;49.030;8.714;2023-02-14T01:22:36;101207.94;;;4.73;71.59
7532;BME280;3807;49.030;8.714;2023-02-14T01:25:01;101207.09;;;4.71;72.11
7532;BME280;3807;49.030;8.714;2023-02-14T01:27:27;101217.31;;;4.78;71.76
7532;BME280;3807;49.030;8.714;2023-02-14T01:29:52;101213.72;;;4.67;71.25
7532;BME280;3807;49.030;8.714;2023-02-14T01:32:18;101217.06;;;4.66;71.93
7532;BME280;3807;49.030;8.714;2023-02-14T01:34:43;101218.78;;;4.67;72.00
7532;BME280;3807;49.030;8.714;2023-02-14T01:37:08;101212.00;;;4.66;71.66
7532;BME280;3807;49.030;8.714;2023-02-14T01:39:34;101218.81;;;4.69;71.19
7532;BME280;3807;49.030;8.714;2023-02-14T01:41:59;101215.34;;;4.64;71.45
7532;BME280;3807;49.030;8.714;2023-02-14T01:46:50;101220.50;;;4.70;71.35
7532;BME280;3807;49.030;8.714;2023-02-14T01:49:25;101213.13;;;4.79;71.16
7532;BME280;3807;49.030;8.714;2023-02-14T01:54:26;101212.75;;;4.61;71.39
7532;BME280;3807;49.030;8.714;2023-02-14T01:56:56;101216.97;;;4.62;71.31
7532;BME280;3807;49.030;8.714;2023-02-14T01:59:25;101221.94;;;4.57;71.52
7532;BME280;3807;49.030;8.714;2023-02-14T02:01:52;101218.59;;;4.60;71.61
7532;BME280;3807;49.030;8.714;2023-02-14T02:04:21;101221.03;;;4.57;71.22
7532;BME280;3807;49.030;8.714;2023-02-14T02:06:53;101225.12;;;4.50;71.54
7532;BME280;3807;49.030;8.714;2023-02-14T02:09:39;101225.09;;;4.48;71.89
7532;BME280;3807;49.030;8.714;2023-02-14T02:12:06;101229.31;;;4.49;71.15
7532;BME280;3807;49.030;8.714;2023-02-14T02:14:32;101232.56;;;4.44;71.69
7532;BME280;3807;49.030;8.714;2023-02-14T02:41:58;101202.84;;;4.32;71.26
7532;BME280;3807;49.030;8.714;2023-02-14T02:49:41;101206.81;;;4.21;71.54
7532;BME280;3807;49.030;8.714;2023-02-14T02:52:39;101210.09;;;4.18;71.03
7532;BME280;3807;49.030;8.714;2023-02-14T02:55:30;101210.78;;;4.11;71.94
7532;BME280;3807;49.030;8.714;2023-02-14T02:58:23;101220.09;;;4.14;71.83
7532;BME280;3807;49.030;8.714;2023-02-14T03:00:52;101217.41;;;4.07;71.96
7532;BME280;3807;49.030;8.714;2023-02-14T03:03:20;101209.06;;;4.09;70.96
7532;BME280;3807;49.030;8.714;2023-02-14T03:06:06;101213.19;;;4.06;71.09
7532;BME280;3807;49.030;8.714;2023-02-14T03:08:31;101209.16;;;4.13;70.97
7532;BME280;3807;49.030;8.714;2023-02-14T03:10:57;101209.91;;;4.09;71.69
7532;BME280;3807;49.030;8.714;2023-02-14T03:13:32;101207.47;;;4.14;71.47
7532;BME280;3807;49.030;8.714;2023-02-14T03:16:21;101205.88;;;4.17;71.09
7532;BME280;3807;49.030;8.714;2023-02-14T03:19:39;101199.28;;;4.22;71.10
7532;BME280;3807;49.030;8.714;2023-02-14T03:22:43;101203.19;;;4.10;71.43
7532;BME280;3807;49.030;8.714;2023-02-14T03:27:46;101200.66;;;4.08;71.24
7532;BME280;3807;49.030;8.714;2023-02-14T03:30:37;101198.00;;;4.03;70.78
7532;BME280;3807;49.030;8.714;2023-02-14T03:33:33;101203.37;;;3.82;71.33
7532;BME280;3807;49.030;8.714;2023-02-14T03:36:34;101198.66;;;3.96;71.30
7532;BME280;3807;49.030;8.714;2023-02-14T03:42:02;101206.97;;;3.91;71.28
7532;BME280;3807;49.030;8.714;2023-02-14T03:44:32;101205.97;;;3.84;71.22
7532;BME280;3807;49.030;8.714;2023-02-14T03:47:10;101201.72;;;3.83;71.01
7532;BME280;3807;49.030;8.714;2023-02-14T03:49:41;101209.59;;;3.97;71.04
7532;BME280;3807;49.030;8.714;2023-02-14T03:52:09;101217.03;;;3.91;71.00
7532;BME280;3807;49.030;8.714;2023-02-14T03:54:35;101216.13;;;3.89;70.72
7532;BME280;3807;49.030;8.714;2023-02-14T03:57:22;101210.94;;;3.82;71.42
7532;BME280;3807;49.030;8.714;2023-02-14T03:59:49;101206.13;;;3.92;70.98
7532;BME280;3807;49.030;8.714;2023-02-14T04:02:26;101206.72;;;3.81;70.55
7532;BME280;3807;49.030;8.714;2023-02-14T04:04:54;101210.09;;;3.82;71.23
7532;BME280;3807;49.030;8.714;2023-02-14T04:07:22;101208.41;;;3.81;71.32
7532;BME280;3807;49.030;8.714;2023-02-14T04:09:48;101207.66;;;3.87;70.88
7532;BME280;3807;49.030;8.714;2023-02-14T04:12:15;101209.56;;;3.95;70.46
7532;BME280;3807;49.030;8.714;2023-02-14T04:14:40;101208.25;;;3.75;70.94
7532;BME280;3807;49.030;8.714;2023-02-14T04:17:06;101203.13;;;3.72;71.01
7532;BME280;3807;49.030;8.714;2023-02-14T04:19:50;101210.75;;;3.73;71.21
7532;BME280;3807;49.030;8.714;2023-02-14T04:22:15;101200.25;;;3.58;71.38
7532;BME280;3807;49.030;8.714;2023-02-14T04:24:41;101208.41;;;3.82;70.84
7532;BME280;3807;49.030;8.714;2023-02-14T04:27:06;101201.78;;;3.86;70.19
7532;BME280;3807;49.030;8.714;2023-02-14T04:29:40;101201.50;;;3.74;71.01
7532;BME280;3807;49.030;8.714;2023-02-14T04:32:08;101200.97;;;3.52;71.50
7532;BME280;3807;49.030;8.714;2023-02-14T04:34:34;101208.06;;;3.67;70.94
7532;BME280;3807;49.030;8.714;2023-02-14T04:36:59;101204.44;;;3.57;70.49
7532;BME280;3807;49.030;8.714;2023-02-14T04:39:25;101197.91;;;3.66;70.80
7532;BME280;3807;49.030;8.714;2023-02-14T04:41:50;101191.94;;;3.62;70.90
7532;BME280;3807;49.030;8.714;2023-02-14T04:44:15;101197.16;;;3.35;71.19
7532;BME280;3807;49.030;8.714;2023-02-14T04:46:41;101197.53;;;3.49;71.19
7532;BME280;3807;49.030;8.714;2023-02-14T04:49:06;101199.22;;;3.50;70.81
7532;BME280;3807;49.030;8.714;2023-02-14T04:51:31;101205.84;;;3.46;71.24
7532;BME280;3807;49.030;8.714;2023-02-14T04:53:57;101196.03;;;3.57;71.14
7532;BME280;3807;49.030;8.714;2023-02-14T04:56:22;101188.22;;;3.46;71.42
7532;BME280;3807;49.030;8.714;2023-02-14T04:58:50;101196.16;;;3.30;71.17
7532;BME280;3807;49.030;8.714;2023-02-14T05:01:15;101195.97;;;3.22;70.99
7532;BME280;3807;49.030;8.714;2023-02-14T05:03:40;101195.41;;;3.32;71.58
7532;BME280;3807;49.030;8.714;2023-02-14T05:06:06;101191.12;;;3.30;71.34
7532;BME280;3807;49.030;8.714;2023-02-14T05:08:31;101184.75;;;3.43;70.67
7532;BME280;3807;49.030;8.714;2023-02-14T05:10:56;101188.88;;;3.39;71.16
7532;BME280;3807;49.030;8.714;2023-02-14T05:13:22;101182.81;;;3.32;70.64
7532;BME280;3807;49.030;8.714;2023-02-14T05:15:47;101189.66;;;3.38;71.00
7532;BME280;3807;49.030;8.714;2023-02-14T05:18:12;101190.44;;;3.36;70.59
7532;BME280;3807;49.030;8.714;2023-02-14T05:20:38;101194.31;;;3.23;70.46
7532;BME280;3807;49.030;8.714;2023-02-14T05:23:03;101199.41;;;3.24;70.66
7532;BME280;3807;49.030;8.714;2023-02-14T05:25:30;101191.62;;;3.17;71.77
7532;BME280;3807;49.030;8.714;2023-02-14T05:27:55;101190.56;;;3.40;70.64
7532;BME280;3807;49.030;8.714;2023-02-14T05:30:21;101185.72;;;3.48;70.37
7532;BME280;3807;49.030;8.714;2023-02-14T05:32:51;101196.37;;;3.38;70.53
7532;BME280;3807;49.030;8.714;2023-02-14T05:35:16;101193.84;;;3.38;70.22
7532;BME280;3807;49.030;8.714;2023-02-14T05:37:42;101185.78;;;3.51;70.74
7532;BME280;3807;49.030;8.714;2023-02-14T05:40:07;101193.09;;;3.40;70.79
7532;BME280;3807;49.030;8.714;2023-02-14T05:42:33;101193.37;;;3.19;70.91
7532;BME280;3807;49.030;8.714;2023-02-14T05:44:58;101185.56;;;3.42;70.47
7532;BME280;3807;49.030;8.714;2023-02-14T05:47:24;101187.13;;;3.38;70.41
7532;BME280;3807;49.030;8.714;2023-02-14T05:49:49;101198.59;;;3.27;71.01
7532;BME280;3807;49.030;8.714;2023-02-14T05:52:14;101198.16;;;3.10;70.93
7532;BME280;3807;49.030;8.714;2023-02-14T05:54:40;101192.72;;;3.26;70.87
7532;BME280;3807;49.030;8.714;2023-02-14T05:57:05;101197.81;;;3.28;70.99
7532;BME280;3807;49.030;8.714;2023-02-14T05:59:30;101206.16;;;3.27;70.94
7532;BME280;3807;49.030;8.714;2023-02-14T06:01:56;101201.31;;;3.34;70.11
7532;BME280;3807;49.030;8.714;2023-02-14T06:04:21;101195.59;;;3.40;70.69
7532;BME280;3807;49.030;8.714;2023-02-14T06:06:46;101207.75;;;3.23;70.46
7532;BME280;3807;49.030;8.714;2023-02-14T06:09:12;101213.63;;;3.24;70.41
7532;BME280;3807;49.030;8.714;2023-02-14T06:11:37;101212.03;;;3.26;70.28
7532;BME280;3807;49.030;8.714;2023-02-14T06:14:03;101207.50;;;3.14;70.74
7532;BME280;3807;49.030;8.714;2023-02-14T06:16:28;101206.69;;;3.47;70.15
7532;BME280;3807;49.030;8.714;2023-02-14T06:18:53;101211.09;;;3.22;70.14
7532;BME280;3807;49.030;8.714;2023-02-14T06:21:18;101221.56;;;3.38;70.46
7532;BME280;3807;49.030;8.714;2023-02-14T06:23:44;101215.63;;;3.36;70.50
7532;BME280;3807;49.030;8.714;2023-02-14T06:26:09;101215.63;;;3.36;69.92
7532;BME280;3807;49.030;8.714;2023-02-14T06:28:34;101217.63;;;3.16;70.30
7532;BME280;3807;49.030;8.714;2023-02-14T06:31:00;101211.81;;;3.18;71.03
7532;BME280;3807;49.030;8.714;2023-02-14T06:33:25;101217.13;;;3.29;70.75
7532;BME280;3807;49.030;8.714;2023-02-14T06:35:52;101225.94;;;3.13;71.15
7532;BME280;3807;49.030;8.714;2023-02-14T06:38:18;101219.53;;;3.24;70.59
7532;BME280;3807;49.030;8.714;2023-02-14T06:40:43;101224.81;;;3.33;70.45
7532;BME280;3807;49.030;8.714;2023-02-14T06:43:09;101226.00;;;3.16;70.29
7532;BME280;3807;49.030;8.714;2023-02-14T06:45:34;101230.19;;;3.16;70.87
7532;BME280;3807;49.030;8.714;2023-02-14T06:47:59;101223.56;;;3.18;70.71
7532;BME280;3807;49.030;8.714;2023-02-14T06:50:25;101222.94;;;3.26;70.56
7532;BME280;3807;49.030;8.714;2023-02-14T06:52:50;101222.84;;;3.23;70.49
7532;BME280;3807;49.030;8.714;2023-02-14T06:55:16;101226.84;;;3.15;70.35
7532;BME280;3807;49.030;8.714;2023-02-14T06:57:42;101231.97;;;3.18;69.88
7532;BME280;3807;49.030;8.714;2023-02-14T07:00:08;101231.81;;;3.14;70.98
7532;BME280;3807;49.030;8.714;2023-02-14T07:02:34;101222.06;;;3.24;70.54
7532;BME280;3807;49.030;8.714;2023-02-14T07:04:59;101234.38;;;3.15;70.36
7532;BME280;3807;49.030;8.714;2023-02-14T07:07:25;101230.88;;;3.10;70.60
7532;BME280;3807;49.030;8.714;2023-02-14T07:09:50;101228.78;;;3.25;69.87
7532;BME280;3807;49.030;8.714;2023-02-14T07:12:16;101231.97;;;3.18;70.73
7532;BME280;3807;49.030;8.714;2023-02-14T07:14:41;101227.88;;;3.23;70.47
7532;BME280;3807;49.030;8.714;2023-02-14T07:17:07;101223.84;;;3.28;70.10
7532;BME280;3807;49.030;8.714;2023-02-14T07:19:32;101216.87;;;3.20;70.27
7532;BME280;3807;49.030;8.714;2023-02-14T07:21:57;101217.19;;;3.00;70.30
7532;BME280;3807;49.030;8.714;2023-02-14T07:24:23;101224.06;;;3.06;70.84
7532;BME280;3807;49.030;8.714;2023-02-14T07:26:48;101230.03;;;3.09;70.59
7532;BME280;3807;49.030;8.714;2023-02-14T07:29:13;101223.41;;;3.13;70.45
7532;BME280;3807;49.030;8.714;2023-02-14T07:31:39;101220.81;;;3.10;70.71
7532;BME280;3807;49.030;8.714;2023-02-14T07:34:04;101225.91;;;3.12;70.66
7532;BME280;3807;49.030;8.714;2023-02-14T07:36:29;101222.09;;;2.96;70.48
7532;BME280;3807;49.030;8.714;2023-02-14T07:38:56;101218.34;;;3.12;70.64
7532;BME280;3807;49.030;8.714;2023-02-14T07:41:21;101225.81;;;3.08;70.62
7532;BME280;3807;49.030;8.714;2023-02-14T07:43:47;101217.34;;;3.06;70.89
7532;BME280;3807;49.030;8.714;2023-02-14T07:46:12;101218.34;;;3.12;70.63
7532;BME280;3807;49.030;8.714;2023-02-14T07:48:37;101213.31;;;3.12;70.37
7532;BME280;3807;49.030;8.714;2023-02-14T07:51:03;101215.94;;;3.16;70.35
7532;BME280;3807;49.030;8.714;2023-02-14T07:53:29;101216.56;;;3.07;70.05
7532;BME280;3807;49.030;8.714;2023-02-14T07:55:54;101219.94;;;3.08;70.60
7532;BME280;3807;49.030;8.714;2023-02-14T07:58:20;101214.62;;;2.99;70.16
7532;BME280;3807;49.030;8.714;2023-02-14T08:00:45;101222.34;;;3.05;70.79
7532;BME280;3807;49.030;8.714;2023-02-14T08:03:11;101224.06;;;3.06;70.75
7532;BME280;3807;49.030;8.714;2023-02-14T08:05:37;101224.97;;;3.08;70.51
7532;BME280;3807;49.030;8.714;2023-02-14T08:08:02;101211.66;;;3.12;70.48
7532;BME280;3807;49.030;8.714;2023-02-14T08:10:27;101218.06;;;3.01;70.78
7532;BME280;3807;49.030;8.714;2023-02-14T08:12:53;101211.22;;;2.97;71.00
7532;BME280;3807;49.030;8.714;2023-02-14T08:15:32;101212.28;;;3.05;70.49
7532;BME280;3807;49.030;8.714;2023-02-14T08:18:17;101212.87;;;2.96;70.88
7532;BME280;3807;49.030;8.714;2023-02-14T08:20:44;101209.50;;;2.96;70.90
7532;BME280;3807;49.030;8.714;2023-02-14T08:23:10;101212.94;;;2.98;70.95
7532;BME280;3807;49.030;8.714;2023-02-14T08:25:36;101222.63;;;3.14;70.53
7532;BME280;3807;49.030;8.714;2023-02-14T08:28:03;101216.37;;;3.01;70.73
7532;BME280;3807;49.030;8.714;2023-02-14T08:30:29;101216.28;;;2.98;70.81
7532;BME280;3807;49.030;8.714;2023-02-14T08:32:54;101214.84;;;3.06;70.65
7532;BME280;3807;49.030;8.714;2023-02-14T08:35:20;101218.22;;;3.07;70.58
7532;BME280;3807;49.030;8.714;2023-02-14T08:37:45;101216.56;;;3.07;70.59
7532;BME280;3807;49.030;8.714;2023-02-14T08:40:11;101215.66;;;3.05;70.54
7532;BME280;3807;49.030;8.714;2023-02-14T08:42:36;101217.53;;;3.13;70.39
7532;BME280;3807;49.030;8.714;2023-02-14T08:45:02;101213.97;;;3.06;70.24
7532;BME280;3807;49.030;8.714;2023-02-14T08:47:27;101211.16;;;2.95;71.07
7532;BME280;3807;49.030;8.714;2023-02-14T08:49:52;101208.16;;;3.07;70.52
7532;BME280;3807;49.030;8.714;2023-02-14T08:52:18;101209.13;;;3.12;70.33
7532;BME280;3807;49.030;8.714;2023-02-14T08:54:43;101216.47;;;3.04;70.40
7532;BME280;3807;49.030;8.714;2023-02-14T08:57:08;101209.00;;;3.07;70.73
7532;BME280;3807;49.030;8.714;2023-02-14T08:59:34;101208.62;;;2.94;71.18
7532;BME280;3807;49.030;8.714;2023-02-14T09:01:59;101204.19;;;3.15;70.24
7532;BME280;3807;49.030;8.714;2023-02-14T09:04:24;101202.94;;;3.01;70.43
7532;BME280;3807;49.030;8.714;2023-02-14T09:06:50;101214.81;;;3.05;70.65
7532;BME280;3807;49.030;8.714;2023-02-14T09:09:15;101215.63;;;3.04;70.41
7532;BME280;3807;49.030;8.714;2023-02-14T09:11:42;101220.59;;;3.02;70.60
7532;BME280;3807;49.030;8.714;2023-02-14T09:14:07;101211.53;;;3.07;70.66
7532;BME280;3807;49.030;8.714;2023-02-14T09:16:33;101216.69;;;3.12;70.47
7532;BME280;3807;49.030;8.714;2023-02-14T09:18:58;101223.69;;;3.24;69.94
7532;BME280;3807;49.030;8.714;2023-02-14T09:21:25;101224.13;;;3.07;70.57
7532;BME280;3807;49.030;8.714;2023-02-14T09:23:51;101222.47;;;3.09;70.25
7532;BME280;3807;49.030;8.714;2023-02-14T09:26:17;101211.53;;;3.07;70.62
7532;BME280;3807;49.030;8.714;2023-02-14T09:28:44;101223.31;;;3.10;70.60
7532;BME280;3807;49.030;8.714;2023-02-14T09:31:12;101216.31;;;3.00;71.01
7532;BME280;3807;49.030;8.714;2023-02-14T09:33:38;101222.34;;;3.05;70.96
7532;BME280;3807;49.030;8.714;2023-02-14T09:36:04;101214.91;;;3.09;70.78
7532;BME280;3807;49.030;8.714;2023-02-14T09:38:48;101209.50;;;2.96;71.17
7532;BME280;3807;49.030;8.714;2023-02-14T09:43:59;101205.38;;;2.98;71.25
7532;BME280;3807;49.030;8.714;2023-02-14T09:46:28;101202.87;;;2.98;71.51
7532;BME280;3807;49.030;8.714;2023-02-14T09:48:55;101198.28;;;3.15;70.83
7532;BME280;3807;49.030;8.714;2023-02-14T09:51:26;101201.16;;;2.97;71.42
7532;BME280;3807;49.030;8.714;2023-02-14T09:54:01;101194.09;;;3.15;70.88
7532;BME280;3807;49.030;8.714;2023-02-14T10:02:20;101194.22;;;3.20;70.85
7532;BME280;3807;49.030;8.714;2023-02-14T10:05:02;101192.72;;;3.26;70.62
7532;BME280;3807;49.030;8.714;2023-02-14T10:07:54;101189.16;;;3.18;71.02
7532;BME280;3807;49.030;8.714;2023-02-14T10:16:15;101181.78;;;3.24;70.95
7532;BME280;3807;49.030;8.714;2023-02-14T10:18:47;101178.44;;;3.25;71.06
7532;BME280;3807;49.030;8.714;2023-02-14T10:21:22;101183.56;;;3.28;70.84
7532;BME280;3807;49.030;8.714;2023-02-14T10:24:00;101170.34;;;3.37;70.43
7532;BME280;3807;49.030;8.714;2023-02-14T10:26:34;101175.19;;;3.31;71.04
7532;BME280;3807;49.030;8.714;2023-02-14T10:29:02;101168.59;;;3.34;70.78
7532;BME280;3807;49.030;8.714;2023-02-14T10:34:37;101164.62;;;3.44;70.49
7532;BME280;3807;49.030;8.714;2023-02-14T10:37:08;101158.25;;;3.57;70.87
7532;BME280;3807;49.030;8.714;2023-02-14T10:42:47;101154.91;;;3.58;70.52
7532;BME280;3807;49.030;8.714;2023-02-14T10:50:58;101158.25;;;3.57;71.32
7532;BME280;3807;49.030;8.714;2023-02-14T10:53:39;101153.06;;;3.86;69.53
7532;BME280;3807;49.030;8.714;2023-02-14T10:56:17;101154.56;;;3.77;70.12
7532;BME280;3807;49.030;8.714;2023-02-14T10:58:45;101149.66;;;3.84;71.70
7532;BME280;3807;49.030;8.714;2023-02-14T11:01:15;101155.87;;;3.98;69.68
7532;BME280;3807;49.030;8.714;2023-02-14T11:03:51;101144.59;;;4.21;70.07
7532;BME280;3807;49.030;8.714;2023-02-14T11:06:17;101150.94;;;4.02;71.09
7532;BME280;3807;49.030;8.714;2023-02-14T11:08:43;101152.16;;;4.21;69.64
7532;BME280;3807;49.030;8.714;2023-02-14T11:13:52;101138.31;;;4.40;70.09
7532;BME280;3807;49.030;8.714;2023-02-14T11:19:26;101138.09;;;4.31;69.40
7532;BME280;3807;49.030;8.714;2023-02-14T11:21:54;101131.59;;;4.41;70.27
7532;BME280;3807;49.030;8.714;2023-02-14T11:24:34;101124.16;;;4.47;70.23
7532;BME280;3807;49.030;8.714;2023-02-14T11:32:28;101114.56;;;4.73;69.70
7532;BME280;3807;49.030;8.714;2023-02-14T11:35:03;101109.09;;;4.95;69.50
7532;BME280;3807;49.030;8.714;2023-02-14T11:37:52;101112.63;;;5.04;69.41
7532;BME280;3807;49.030;8.714;2023-02-14T11:40:36;101101.78;;;5.09;69.50
7532;BME280;3807;49.030;8.714;2023-02-14T11:45:45;101100.75;;;5.48;69.02
7532;BME280;3807;49.030;8.714;2023-02-14T11:48:24;101104.22;;;5.55;68.61
7532;BME280;3807;49.030;8.714;2023-02-14T11:50:56;101097.75;;;5.73;68.66
7532;BME280;3807;49.030;8.714;2023-02-14T11:53:26;101090.00;;;5.63;68.79
7532;BME280;3807;49.030;8.714;2023-02-14T11:55:54;101086.59;;;5.61;68.75
7532;BME280;3807;49.030;8.714;2023-02-14T12:00:56;101085.50;;;5.96;68.43
7532;BME280;3807;49.030;8.714;2023-02-14T12:03:22;101082.41;;;6.20;67.32
7532;BME280;3807;49.030;8.714;2023-02-14T12:05:48;101078.00;;;6.04;68.46
7532;BME280;3807;49.030;8.714;2023-02-14T12:08:23;101071.41;;;6.17;67.97
7532;BME280;3807;49.030;8.714;2023-02-14T12:11:22;101067.06;;;6.05;68.76
7532;BME280;3807;49.030;8.714;2023-02-14T12:13:56;101072.59;;;6.42;67.80
7532;BME280;3807;49.030;8.714;2023-02-14T12:16:37;101066.25;;;6.09;68.95
7532;BME280;3807;49.030;8.714;2023-02-14T12:19:16;101066.63;;;6.40;68.42
7532;BME280;3807;49.030;8.714;2023-02-14T12:32:24;101052.97;;;7.05;67.08
7532;BME280;3807;49.030;8.714;2023-02-14T12:34:55;101048.69;;;6.99;67.43
7532;BME280;3807;49.030;8.714;2023-02-14T12:37:33;101036.91;;;7.03;67.81
7532;BME280;3807;49.030;8.714;2023-02-14T12:43:00;101041.31;;;7.28;67.21
7532;BME280;3807;49.030;8.714;2023-02-14T12:45:51;101034.69;;;7.44;66.55
7532;BME280;3807;49.030;8.714;2023-02-14T12:49:11;101033.94;;;7.57;66.56
7532;BME280;3807;49.030;8.714;2023-02-14T12:51:30;101027.00;;;7.33;67.73
7532;BME280;3807;49.030;8.714;2023-02-14T13:13:37;100995.38;;;8.32;65.49
7532;BME280;3807;49.030;8.714;2023-02-14T13:18:46;100993.75;;;8.48;64.91
7532;BME280;3807;49.030;8.714;2023-02-14T13:21:19;100995.47;;;8.58;64.83
7532;BME280;3807;49.030;8.714;2023-02-14T13:23:47;100994.59;;;8.45;65.54
7532;BME280;3807;49.030;8.714;2023-02-14T13:26:19;100991.22;;;8.52;65.29
7532;BME280;3807;49.030;8.714;2023-02-14T13:28:51;100991.22;;;8.65;65.10
7532;BME280;3807;49.030;8.714;2023-02-14T13:31:18;100984.50;;;8.79;64.49
7532;BME280;3807;49.030;8.714;2023-02-14T13:33:53;100980.25;;;8.79;64.86
7532;BME280;3807;49.030;8.714;2023-02-14T13:36:21;100974.31;;;8.85;64.86
7532;BME280;3807;49.030;8.714;2023-02-14T13:38:52;100979.37;;;8.85;64.77
7532;BME280;3807;49.030;8.714;2023-02-14T13:41:19;100970.94;;;9.01;64.22
7532;BME280;3807;49.030;8.714;2023-02-14T13:43:51;100969.22;;;8.85;64.82
7532;BME280;3807;49.030;8.714;2023-02-14T13:51:57;100961.59;;;9.02;64.54
7532;BME280;3807;49.030;8.714;2023-02-14T13:57:24;100951.44;;;8.99;64.48
7532;BME280;3807;49.030;8.714;2023-02-14T14:02:51;100957.38;;;8.98;65.15
7532;BME280;3807;49.030;8.714;2023-02-14T14:10:46;100956.50;;;9.20;64.61
7532;BME280;3807;49.030;8.714;2023-02-14T14:19:02;100950.59;;;9.04;65.07
7532;BME280;3807;49.030;8.714;2023-02-14T14:24:52;100954.84;;;9.18;64.47
7532;BME280;3807;49.030;8.714;2023-02-14T14:27:22;100948.03;;;9.23;64.50
7532;BME280;3807;49.030;8.714;2023-02-14T14:29:51;100950.59;;;9.07;64.86
7532;BME280;3807;49.030;8.714;2023-02-14T14:32:30;100945.53;;;9.01;65.37
7532;BME280;3807;49.030;8.714;2023-02-14T14:35:19;100948.91;;;9.08;65.23
7532;BME280;3807;49.030;8.714;2023-02-14T14:40:37;100943.81;;;8.99;65.61
7532;BME280;3807;49.030;8.714;2023-02-14T14:43:29;100939.63;;;8.86;66.07
7532;BME280;3807;49.030;8.714;2023-02-14T14:45:56;100940.41;;;9.23;65.08
7532;BME280;3807;49.030;8.714;2023-02-14T14:48:36;100938.72;;;9.28;64.90
7532;BME280;3807;49.030;8.714;2023-02-14T14:51:05;100940.38;;;9.30;64.56
7532;BME280;3807;49.030;8.714;2023-02-14T14:53:40;100938.69;;;9.42;64.61
7532;BME280;3807;49.030;8.714;2023-02-14T14:56:27;100932.78;;;9.29;65.12
7532;BME280;3807;49.030;8.714;2023-02-14T14:58:53;100934.47;;;9.32;65.13
7532;BME280;3807;49.030;8.714;2023-02-14T15:01:38;100937.03;;;9.15;65.15
7532;BME280;3807;49.030;8.714;2023-02-14T15:04:31;100928.56;;;9.13;66.06
7532;BME280;3807;49.030;8.714;2023-02-14T15:07:17;100924.31;;;9.15;65.68
7532;BME280;3807;49.030;8.714;2023-02-14T15:09:43;100916.66;;;9.27;65.26
7532;BME280;3807;49.030;8.714;2023-02-14T15:12:09;100926.81;;;9.36;65.10
7532;BME280;3807;49.030;8.714;2023-02-14T15:14:54;100915.84;;;9.16;65.78
7532;BME280;3807;49.030;8.714;2023-02-14T15:17:31;100919.19;;;9.27;65.50
7532;BME280;3807;49.030;8.714;2023-02-14T15:20:09;100915.00;;;9.18;65.71
7532;BME280;3807;49.030;8.714;2023-02-14T15:22:44;100914.97;;;9.26;65.49
7532;BME280;3807;49.030;8.714;2023-02-14T15:25:22;100910.72;;;9.33;65.16
7532;BME280;3807;49.030;8.714;2023-02-14T15:27:49;100907.34;;;9.20;65.48
7532;BME280;3807;49.030;8.714;2023-02-14T15:32:43;100909.06;;;9.19;65.36
7532;BME280;3807;49.030;8.714;2023-02-14T15:35:11;100903.97;;;9.19;65.37
7532;BME280;3807;49.030;8.714;2023-02-14T15:37:38;100909.06;;;9.19;65.84
7532;BME280;3807;49.030;8.714;2023-02-14T15:40:05;100906.53;;;9.18;65.24
7532;BME280;3807;49.030;8.714;2023-02-14T15:42:38;100902.34;;;8.97;65.74
7532;BME280;3807;49.030;8.714;2023-02-14T15:45:21;100907.38;;;9.06;66.00
7532;BME280;3807;49.030;8.714;2023-02-14T15:47:50;100909.94;;;9.14;65.93
7532;BME280;3807;49.030;8.714;2023-02-14T15:50:31;100902.31;;;9.07;66.07
7532;BME280;3807;49.030;8.714;2023-02-14T15:53:20;100911.63;;;9.21;65.46
7532;BME280;3807;49.030;8.714;2023-02-14T15:55:50;100910.78;;;9.17;65.45
7532;BME280;3807;49.030;8.714;2023-02-14T15:58:21;100917.53;;;9.26;65.28
7532;BME280;3807;49.030;8.714;2023-02-14T16:00:48;100914.97;;;9.17;65.46
7532;BME280;3807;49.030;8.714;2023-02-14T16:03:23;100923.44;;;9.20;65.27
7532;BME280;3807;49.030;8.714;2023-02-14T16:05:49;100917.56;;;9.01;65.98
7532;BME280;3807;49.030;8.714;2023-02-14T16:11:14;100914.16;;;9.12;65.69